createdAt,value
2024-01-27T00:00:52.283Z,99582.53
2024-01-27T00:03:19.032Z,99575.47
2024-01-27T00:05:46.234Z,99585.66
2024-01-27T00:08:12.926Z,99590.56
2024-01-27T00:10:39.643Z,99587.38
2024-01-27T00:13:06.328Z,99590.63
2024-01-27T00:15:33.185Z,99584.25
2024-01-27T00:18:00.131Z,99584.19
2024-01-27T00:20:27.549Z,99580.50
2024-01-27T00:22:54.166Z,99586.94
2024-01-27T00:25:20.875Z,99586.69
2024-01-27T00:27:47.580Z,99585.03
2024-01-27T00:30:14.387Z,99593.47
2024-01-27T00:32:41.330Z,99593.50
2024-01-27T00:35:09.190Z,99598.06
2024-01-27T00:37:35.724Z,99597.16
2024-01-27T00:40:02.882Z,99591.38
2024-01-27T00:42:29.747Z,99600.81
2024-01-27T00:44:56.422Z,99606.22
2024-01-27T00:47:23.574Z,99608.13
2024-01-27T00:49:50.748Z,99604.94
2024-01-27T00:52:17.504Z,99613.47
2024-01-27T00:54:44.026Z,99609.50
2024-01-27T00:57:10.704Z,99621.78
2024-01-27T00:59:37.595Z,99616.25
2024-01-27T01:02:04.914Z,99623.72
2024-01-27T01:04:31.865Z,99609.31
2024-01-27T01:06:58.737Z,99619.47
2024-01-27T01:09:25.571Z,99627.81
2024-01-27T01:11:52.317Z,99630.22
2024-01-27T01:14:18.977Z,99631.72
2024-01-27T01:16:45.626Z,99628.50
2024-01-27T01:19:12.327Z,99626.97
2024-01-27T01:21:39.083Z,99635.34
2024-01-27T01:24:05.869Z,99637.44
2024-01-27T01:26:32.492Z,99637.19
2024-01-27T01:28:59.257Z,99638.97
2024-01-27T01:31:25.950Z,99634.47
2024-01-27T01:33:52.863Z,99633.16
2024-01-27T01:36:19.765Z,99642.50
2024-01-27T01:38:47.349Z,99640.69
2024-01-27T01:41:14.393Z,99636.31
2024-01-27T01:43:41.318Z,99643.22
2024-01-27T01:46:08.828Z,99633.44
2024-01-27T01:48:35.790Z,99631.59
2024-01-27T01:51:03.609Z,99628.44
2024-01-27T01:53:30.298Z,99639.41
2024-01-27T01:55:57.114Z,99633.78
2024-01-27T01:58:23.854Z,99635.41
2024-01-27T02:00:52.820Z,99641.81
2024-01-27T02:03:19.529Z,99648.13
2024-01-27T02:05:46.352Z,99655.78
2024-01-27T02:08:13.162Z,99666.25
2024-01-27T02:10:39.860Z,99666.28
2024-01-27T02:13:25.712Z,99672.69
2024-01-27T02:15:52.674Z,99665.00
2024-01-27T02:18:19.723Z,99667.69
2024-01-27T02:20:46.998Z,99665.84
2024-01-27T02:23:14.052Z,99659.72
2024-01-27T02:25:40.625Z,99665.06
2024-01-27T02:28:07.460Z,99672.28
2024-01-27T02:30:34.122Z,99673.63
2024-01-27T02:33:01.827Z,99676.03
2024-01-27T02:35:30.649Z,99683.25
2024-01-27T02:37:57.416Z,99684.59
2024-01-27T02:40:24.211Z,99692.63
2024-01-27T02:42:50.835Z,99684.56
2024-01-27T02:45:17.938Z,99686.13
2024-01-27T02:47:44.824Z,99681.09
2024-01-27T02:50:12.128Z,99685.06
2024-01-27T02:52:38.792Z,99693.28
2024-01-27T02:55:06.125Z,99687.66
2024-01-27T02:57:33.007Z,99687.63
2024-01-27T02:59:59.642Z,99686.28
2024-01-27T03:02:26.293Z,99685.53
2024-01-27T03:04:52.957Z,99689.25
2024-01-27T03:07:19.646Z,99685.28
2024-01-27T03:09:46.158Z,99686.38
2024-01-27T03:12:12.925Z,99685.31
2024-01-27T03:14:39.503Z,99683.75
2024-01-27T03:17:06.095Z,99685.09
2024-01-27T03:19:32.969Z,99689.84
2024-01-27T03:21:59.757Z,99683.97
2024-01-27T03:24:26.395Z,99690.41
2024-01-27T03:26:54.886Z,99688.28
2024-01-27T03:29:21.643Z,99692.06
2024-01-27T03:31:48.229Z,99690.44
2024-01-27T03:34:15.635Z,99695.50
2024-01-27T03:36:42.652Z,99708.31
2024-01-27T03:39:10.174Z,99705.19
2024-01-27T03:41:36.928Z,99707.84
2024-01-27T03:44:03.857Z,99712.91
2024-01-27T03:46:30.792Z,99714.84
2024-01-27T03:48:57.588Z,99714.88
2024-01-27T03:51:25.519Z,99711.69
2024-01-27T03:53:52.488Z,99712.44
2024-01-27T03:56:19.327Z,99720.19
2024-01-27T03:58:45.935Z,99719.41
2024-01-27T04:01:12.696Z,99715.94
2024-01-27T04:03:39.785Z,99724.47
2024-01-27T04:06:07.295Z,99732.19
2024-01-27T04:08:34.032Z,99728.44
2024-01-27T04:11:01.012Z,99731.13
2024-01-27T04:13:27.572Z,99737.00
2024-01-27T04:15:55.310Z,99738.09
2024-01-27T04:18:22.513Z,99745.81
2024-01-27T04:20:49.992Z,99738.59
2024-01-27T04:23:17.210Z,99736.44
2024-01-27T04:25:44.948Z,99726.84
2024-01-27T04:28:13.355Z,99729.50
2024-01-27T04:30:40.260Z,99729.53
2024-01-27T04:33:08.980Z,99738.06
2024-01-27T04:35:36.136Z,99746.31
2024-01-27T04:38:02.804Z,99751.94
2024-01-27T04:40:30.098Z,99752.75
2024-01-27T04:42:56.755Z,99748.22
2024-01-27T04:45:23.639Z,99750.06
2024-01-27T04:47:50.823Z,99758.34
2024-01-27T04:50:17.931Z,99766.84
2024-01-27T04:52:44.502Z,99756.47
2024-01-27T04:55:11.184Z,99755.16
2024-01-27T04:57:37.932Z,99753.53
2024-01-27T05:00:08.587Z,99766.91
2024-01-27T05:02:35.315Z,99771.16
2024-01-27T05:05:04.268Z,99760.75
2024-01-27T05:07:30.933Z,99761.81
2024-01-27T05:09:58.009Z,99754.34
2024-01-27T05:12:24.936Z,99744.47
2024-01-27T05:14:51.608Z,99754.09
2024-01-27T05:17:18.400Z,99758.34
2024-01-27T05:19:45.416Z,99758.38
2024-01-27T05:22:12.122Z,99757.81
2024-01-27T05:24:38.860Z,99755.97
2024-01-27T05:27:05.689Z,99753.56
2024-01-27T05:29:32.747Z,99755.13
2024-01-27T05:31:59.346Z,99751.94
2024-01-27T05:34:26.272Z,99744.44
2024-01-27T05:36:53.102Z,99744.69
2024-01-27T05:39:19.850Z,99752.19
2024-01-27T05:41:46.410Z,99760.69
2024-01-27T05:44:13.334Z,99770.00
2024-01-27T05:46:40.067Z,99777.44
2024-01-27T05:49:06.737Z,99765.88
2024-01-27T05:51:34.879Z,99765.56
2024-01-27T05:54:01.831Z,99765.25
2024-01-27T05:56:32.250Z,99755.09
2024-01-27T05:58:58.851Z,99761.47
2024-01-27T06:01:25.793Z,99762.25
2024-01-27T06:03:52.492Z,99753.19
2024-01-27T06:06:19.312Z,99768.66
2024-01-27T06:08:46.040Z,99761.63
2024-01-27T06:11:12.656Z,99758.88
2024-01-27T06:13:40.198Z,99758.84
2024-01-27T06:16:10.626Z,99762.06
2024-01-27T06:18:38.426Z,99759.88
2024-01-27T06:21:06.976Z,99769.38
2024-01-27T06:23:34.198Z,99770.19
2024-01-27T06:26:00.796Z,99767.22
2024-01-27T06:28:27.352Z,99766.72
2024-01-27T06:30:54.360Z,99768.81
2024-01-27T06:33:21.387Z,99770.47
2024-01-27T06:35:48.330Z,99775.78
2024-01-27T06:38:15.354Z,99778.44
2024-01-27T06:40:41.937Z,99775.75
2024-01-27T06:43:08.782Z,99772.28
2024-01-27T06:45:35.648Z,99777.41
2024-01-27T06:48:02.514Z,99780.03
2024-01-27T06:50:29.169Z,99783.22
2024-01-27T06:52:55.980Z,99776.09
2024-01-27T06:55:22.734Z,99776.88
2024-01-27T06:57:49.373Z,99786.00
2024-01-27T07:00:17.466Z,99783.72
2024-01-27T07:02:44.319Z,99784.16
2024-01-27T07:05:11.277Z,99784.22
2024-01-27T07:07:38.096Z,99784.81
2024-01-27T07:10:05.044Z,99786.97
2024-01-27T07:12:31.923Z,99786.75
2024-01-27T07:15:01.017Z,99785.94
2024-01-27T07:17:28.514Z,99793.16
2024-01-27T07:19:55.595Z,99800.06
2024-01-27T07:22:24.023Z,99800.06
2024-01-27T07:24:52.695Z,99812.63
2024-01-27T07:27:20.201Z,99809.44
2024-01-27T07:29:47.188Z,99801.72
2024-01-27T07:32:14.498Z,99798.22
2024-01-27T07:34:45.169Z,99799.25
2024-01-27T07:37:12.046Z,99805.66
2024-01-27T07:39:39.013Z,99808.63
2024-01-27T07:42:06.014Z,99813.13
2024-01-27T07:44:33.492Z,99809.41
2024-01-27T07:47:00.160Z,99810.47
2024-01-27T07:49:26.765Z,99802.31
2024-01-27T07:51:53.382Z,99814.56
2024-01-27T07:54:20.036Z,99806.56
2024-01-27T07:56:46.632Z,99796.47
2024-01-27T07:59:15.751Z,99787.66
2024-01-27T08:01:42.797Z,99781.47
2024-01-27T08:04:09.975Z,99780.19
2024-01-27T08:06:49.933Z,99782.31
2024-01-27T08:09:17.484Z,99770.97
2024-01-27T08:11:44.471Z,99770.97
2024-01-27T08:14:11.479Z,99779.22
2024-01-27T08:16:38.100Z,99772.28
2024-01-27T08:19:05.674Z,99776.50
2024-01-27T08:21:32.526Z,99768.53
2024-01-27T08:23:59.267Z,99786.66
2024-01-27T08:26:26.008Z,99774.06
2024-01-27T08:28:52.642Z,99782.63
2024-01-27T08:31:19.288Z,99784.72
2024-01-27T08:33:45.969Z,99795.38
2024-01-27T08:36:16.489Z,99790.31
2024-01-27T08:38:43.437Z,99796.50
2024-01-27T08:41:11.101Z,99788.91
2024-01-27T08:43:37.774Z,99778.78
2024-01-27T08:46:04.625Z,99789.47
2024-01-27T08:48:31.290Z,99784.38
2024-01-27T08:50:58.269Z,99785.75
2024-01-27T08:53:24.901Z,99776.22
2024-01-27T08:55:51.552Z,99777.31
2024-01-27T08:58:18.193Z,99774.66
2024-01-27T09:00:45.009Z,99775.72
2024-01-27T09:03:13.679Z,99782.31
2024-01-27T09:05:41.940Z,99769.75
2024-01-27T09:08:09.117Z,99776.59
2024-01-27T09:10:35.797Z,99776.66
2024-01-27T09:13:02.734Z,99774.00
2024-01-27T09:15:29.507Z,99775.31
2024-01-27T09:17:56.395Z,99775.88
2024-01-27T09:20:23.972Z,99773.50
2024-01-27T09:22:51.834Z,99769.75
2024-01-27T09:25:18.561Z,99770.75
2024-01-27T09:27:45.163Z,99770.19
2024-01-27T09:30:12.291Z,99769.41
2024-01-27T09:32:40.886Z,99758.53
2024-01-27T09:35:07.815Z,99759.09
2024-01-27T09:37:34.756Z,99755.72
2024-01-27T09:40:05.799Z,99761.34
2024-01-27T09:42:35.146Z,99758.25
2024-01-27T09:45:03.525Z,99749.75
2024-01-27T09:47:30.834Z,99762.56
2024-01-27T09:49:58.341Z,99767.91
2024-01-27T09:52:25.639Z,99763.66
2024-01-27T09:54:52.312Z,99758.88
2024-01-27T09:57:20.175Z,99765.00
2024-01-27T09:59:48.417Z,99773.56
2024-01-27T10:02:16.626Z,99780.78
2024-01-27T10:04:44.217Z,99775.97
2024-01-27T10:07:11.452Z,99772.50
2024-01-27T10:09:38.176Z,99764.75
2024-01-27T10:12:05.909Z,99760.75
2024-01-27T10:14:42.575Z,99757.00
2024-01-27T10:17:13.384Z,99758.34
2024-01-27T10:19:44.941Z,99767.94
2024-01-27T10:22:12.336Z,99770.06
2024-01-27T10:24:39.061Z,99762.00
2024-01-27T10:27:06.253Z,99755.88
2024-01-27T10:29:33.962Z,99752.94
2024-01-27T10:32:11.795Z,99753.19
2024-01-27T10:34:38.776Z,99758.50
2024-01-27T10:37:05.701Z,99756.34
2024-01-27T10:39:32.702Z,99747.78
2024-01-27T10:42:03.525Z,99747.22
2024-01-27T10:44:30.854Z,99744.03
2024-01-27T10:47:02.192Z,99745.88
2024-01-27T10:49:32.526Z,99741.53
2024-01-27T10:52:00.627Z,99737.81
2024-01-27T10:54:28.982Z,99733.50
2024-01-27T10:57:00.165Z,99727.59
2024-01-27T10:59:28.631Z,99721.69
2024-01-27T11:01:56.150Z,99710.44
2024-01-27T11:04:23.613Z,99700.28
2024-01-27T11:06:51.215Z,99701.28
2024-01-27T11:09:20.064Z,99706.31
2024-01-27T11:11:47.683Z,99703.78
2024-01-27T11:14:14.460Z,99696.47
2024-01-27T11:16:45.759Z,99699.03
2024-01-27T11:19:13.763Z,99700.78
2024-01-27T11:21:41.108Z,99695.28
2024-01-27T11:24:17.774Z,99692.09
2024-01-27T11:26:44.972Z,99676.00
2024-01-27T11:29:20.885Z,99677.53
2024-01-27T11:31:47.951Z,99642.50
2024-01-27T11:34:17.621Z,99626.44
2024-01-27T11:36:45.005Z,99626.53
2024-01-27T11:39:31.626Z,99619.16
2024-01-27T11:42:09.103Z,99610.81
2024-01-27T11:44:39.941Z,99612.34
2024-01-27T11:47:14.889Z,99611.31
2024-01-27T11:49:45.803Z,99599.38
2024-01-27T11:52:12.736Z,99588.00
2024-01-27T11:54:39.626Z,99594.84
2024-01-27T11:57:07.217Z,99591.53
2024-01-27T11:59:35.082Z,99594.88
2024-01-27T12:02:05.301Z,99605.25
2024-01-27T12:04:32.084Z,99606.31
2024-01-27T12:06:58.885Z,99611.09
2024-01-27T12:09:25.670Z,99599.13
2024-01-27T12:11:52.452Z,99594.09
2024-01-27T12:14:19.143Z,99596.16
2024-01-27T12:16:46.289Z,99592.56
2024-01-27T12:19:13.347Z,99594.97
2024-01-27T12:21:47.836Z,99596.09
2024-01-27T12:24:22.274Z,99587.25
2024-01-27T12:26:49.380Z,99592.03
2024-01-27T12:29:16.006Z,99584.75
2024-01-27T12:31:42.871Z,99584.28
2024-01-27T12:34:10.669Z,99581.31
2024-01-27T12:36:42.676Z,99572.25
2024-01-27T12:39:10.839Z,99573.41
2024-01-27T12:41:37.670Z,99565.34
2024-01-27T12:44:04.738Z,99564.84
2024-01-27T12:46:32.806Z,99567.56
2024-01-27T12:48:59.900Z,99558.38
2024-01-27T12:51:26.676Z,99561.09
2024-01-27T12:53:53.528Z,99566.66
2024-01-27T12:56:20.413Z,99558.91
2024-01-27T12:58:47.156Z,99547.97
2024-01-27T13:01:14.085Z,99551.63
2024-01-27T13:03:44.465Z,99551.94
2024-01-27T13:06:14.296Z,99548.13
2024-01-27T13:08:42.883Z,99537.69
2024-01-27T13:11:09.863Z,99528.19
2024-01-27T13:13:36.434Z,99532.94
2024-01-27T13:16:03.564Z,99533.91
2024-01-27T13:18:30.365Z,99537.56
2024-01-27T13:20:57.071Z,99535.03
2024-01-27T13:23:23.880Z,99529.47
2024-01-27T13:26:02.521Z,99523.78
2024-01-27T13:28:37.455Z,99518.88
2024-01-27T13:31:06.114Z,99517.41
2024-01-27T13:33:34.166Z,99511.06
2024-01-27T13:36:01.339Z,99506.31
2024-01-27T13:38:28.097Z,99505.84
2024-01-27T13:40:54.856Z,99503.63
2024-01-27T13:43:21.991Z,99502.53
2024-01-27T13:45:49.185Z,99512.34
2024-01-27T13:48:17.269Z,99505.41
2024-01-27T13:50:44.328Z,99508.41
2024-01-27T13:53:11.118Z,99504.91
2024-01-27T13:55:38.721Z,99500.63
2024-01-27T13:58:06.690Z,99497.31
2024-01-27T14:00:36.220Z,99495.06
2024-01-27T14:03:03.594Z,99493.66
2024-01-27T14:05:31.222Z,99490.00
2024-01-27T14:07:58.240Z,99486.69
2024-01-27T14:10:26.095Z,99487.78
2024-01-27T14:12:53.166Z,99492.69
2024-01-27T14:15:19.916Z,99494.78
2024-01-27T14:17:47.357Z,99493.03
2024-01-27T14:20:14.744Z,99491.25
2024-01-27T14:22:41.521Z,99492.84
2024-01-27T14:25:09.297Z,99500.16
2024-01-27T14:27:36.584Z,99488.88
2024-01-27T14:30:03.936Z,99489.19
2024-01-27T14:32:30.672Z,99489.53
2024-01-27T14:34:58.079Z,99485.88
2024-01-27T14:37:25.162Z,99488.09
2024-01-27T14:39:51.772Z,99490.78
2024-01-27T14:42:18.987Z,99496.50
2024-01-27T14:44:50.722Z,99501.25
2024-01-27T14:47:17.610Z,99491.59
2024-01-27T14:49:46.913Z,99509.53
2024-01-27T14:52:14.057Z,99506.84
2024-01-27T14:54:41.368Z,99500.31
2024-01-27T14:57:11.162Z,99498.72
2024-01-27T14:59:40.447Z,99495.53
2024-01-27T15:02:09.090Z,99492.38
2024-01-27T15:04:35.969Z,99488.72
2024-01-27T15:07:02.745Z,99490.31
2024-01-27T15:09:29.584Z,99488.25
2024-01-27T15:11:56.402Z,99484.91
2024-01-27T15:14:23.387Z,99483.50
2024-01-27T15:16:50.364Z,99482.53
2024-01-27T15:19:17.708Z,99486.50
2024-01-27T15:21:44.496Z,99487.94
2024-01-27T15:24:11.497Z,99486.97
2024-01-27T15:26:38.253Z,99487.75
2024-01-27T15:29:04.821Z,99483.66
2024-01-27T15:31:31.729Z,99485.56
2024-01-27T15:33:58.522Z,99485.41
2024-01-27T15:36:25.346Z,99488.56
2024-01-27T15:38:51.984Z,99485.56
2024-01-27T15:41:20.236Z,99483.50
2024-01-27T15:43:48.966Z,99487.94
2024-01-27T15:46:16.069Z,99483.19
2024-01-27T15:48:42.988Z,99485.41
2024-01-27T15:51:09.924Z,99488.09
2024-01-27T15:53:37.238Z,99490.78
2024-01-27T15:56:04.225Z,99493.66
2024-01-27T15:58:30.844Z,99496.19
2024-01-27T16:00:57.506Z,99500.00
2024-01-27T16:03:24.761Z,99488.09
2024-01-27T16:05:51.421Z,99497.59
2024-01-27T16:08:17.998Z,99493.34
2024-01-27T16:10:49.445Z,99490.78
2024-01-27T16:13:16.048Z,99500.09
2024-01-27T16:15:42.652Z,99499.63
2024-01-27T16:18:09.784Z,99504.38
2024-01-27T16:20:36.469Z,99505.16
2024-01-27T16:23:02.989Z,99510.22
2024-01-27T16:25:34.964Z,99515.78
2024-01-27T16:28:01.685Z,99509.41
2024-01-27T16:30:28.298Z,99501.97
2024-01-27T16:32:55.579Z,99504.47
2024-01-27T16:35:22.205Z,99508.91
2024-01-27T16:37:49.002Z,99509.84
2024-01-27T16:40:15.970Z,99518.84
2024-01-27T16:42:42.686Z,99511.53
2024-01-27T16:45:11.024Z,99506.47
2024-01-27T16:47:43.183Z,99511.50
2024-01-27T16:50:11.177Z,99511.94
2024-01-27T16:52:38.247Z,99509.56
2024-01-27T16:55:05.965Z,99511.28
2024-01-27T16:57:33.362Z,99520.25
2024-01-27T17:00:00.122Z,99517.72
2024-01-27T17:02:27.124Z,99512.44
2024-01-27T17:04:53.861Z,99511.47
2024-01-27T17:07:20.866Z,99521.56
2024-01-27T17:09:48.276Z,99527.56
2024-01-27T17:12:15.218Z,99531.97
2024-01-27T17:14:41.917Z,99525.81
2024-01-27T17:17:08.929Z,99528.81
2024-01-27T17:19:36.742Z,99529.44
2024-01-27T17:22:04.663Z,99531.13
2024-01-27T17:24:31.561Z,99531.25
2024-01-27T17:27:00.098Z,99533.75
2024-01-27T17:29:26.987Z,99538.16
2024-01-27T17:31:54.029Z,99532.13
2024-01-27T17:34:22.267Z,99540.28
2024-01-27T17:36:48.947Z,99547.84
2024-01-27T17:39:17.333Z,99537.69
2024-01-27T17:41:44.781Z,99537.31
2024-01-27T17:44:11.645Z,99542.97
2024-01-27T17:46:38.341Z,99535.69
2024-01-27T17:49:05.123Z,99545.66
2024-01-27T17:51:32.860Z,99540.91
2024-01-27T17:54:04.163Z,99543.28
2024-01-27T17:56:31.015Z,99545.47
2024-01-27T17:58:57.965Z,99549.44
2024-01-27T18:01:25.116Z,99557.50
2024-01-27T18:03:52.024Z,99551.66
2024-01-27T18:06:18.968Z,99562.22
2024-01-27T18:08:45.998Z,99555.44
2024-01-27T18:11:12.577Z,99547.06
2024-01-27T18:13:39.439Z,99540.09
2024-01-27T18:16:06.563Z,99546.06
2024-01-27T18:18:33.915Z,99543.69
2024-01-27T18:21:00.621Z,99542.09
2024-01-27T18:23:27.686Z,99552.06
2024-01-27T18:25:54.256Z,99548.69
2024-01-27T18:28:20.794Z,99539.94
2024-01-27T18:30:48.200Z,99542.72
2024-01-27T18:33:15.294Z,99548.72
2024-01-27T18:35:41.953Z,99551.41
2024-01-27T18:38:08.796Z,99559.28
2024-01-27T18:40:35.916Z,99564.66
2024-01-27T18:43:02.523Z,99562.75
2024-01-27T18:45:29.519Z,99551.22
2024-01-27T18:47:56.996Z,99549.94
2024-01-27T18:50:23.555Z,99546.94
2024-01-27T18:52:54.758Z,99547.72
2024-01-27T18:55:25.076Z,99537.56
2024-01-27T18:57:51.883Z,99544.56
2024-01-27T19:00:21.537Z,99542.16
2024-01-27T19:02:48.438Z,99539.47
2024-01-27T19:05:17.073Z,99533.81
2024-01-27T19:07:44.175Z,99526.03
2024-01-27T19:10:10.933Z,99519.75
2024-01-27T19:12:37.819Z,99528.97
2024-01-27T19:15:04.833Z,99526.97
2024-01-27T19:17:31.648Z,99522.25
2024-01-27T19:19:58.796Z,99532.94
2024-01-27T19:22:25.540Z,99534.28
2024-01-27T19:24:52.336Z,99532.84
2024-01-27T19:27:18.971Z,99540.28
2024-01-27T19:29:45.755Z,99534.91
2024-01-27T19:32:12.363Z,99537.50
2024-01-27T19:34:41.145Z,99535.91
2024-01-27T19:37:08.075Z,99537.00
2024-01-27T19:39:34.693Z,99533.50
2024-01-27T19:42:01.299Z,99540.41
2024-01-27T19:44:28.022Z,99543.09
2024-01-27T19:46:54.815Z,99540.00
2024-01-27T19:49:22.971Z,99535.22
2024-01-27T19:51:49.674Z,99526.66
2024-01-27T19:54:16.300Z,99518.72
2024-01-27T19:56:43.198Z,99525.19
2024-01-27T19:59:09.764Z,99515.03
2024-01-27T20:01:36.506Z,99520.44
2024-01-27T20:04:03.776Z,99514.25
2024-01-27T20:06:30.648Z,99526.03
2024-01-27T20:09:03.170Z,99525.53
2024-01-27T20:11:35.933Z,99521.84
2024-01-27T20:14:02.509Z,99521.06
2024-01-27T20:16:29.057Z,99517.88
2024-01-27T20:18:56.297Z,99518.28
2024-01-27T20:21:23.401Z,99519.59
2024-01-27T20:23:50.036Z,99521.06
2024-01-27T20:26:16.768Z,99519.09
2024-01-27T20:28:43.339Z,99527.75
2024-01-27T20:31:09.979Z,99525.69
2024-01-27T20:33:45.316Z,99526.88
2024-01-27T20:36:16.782Z,99525.88
2024-01-27T20:38:44.550Z,99520.31
2024-01-27T20:41:11.917Z,99513.84
2024-01-27T20:43:38.836Z,99510.34
2024-01-27T20:46:07.866Z,99514.53
2024-01-27T20:48:35.627Z,99517.41
2024-01-27T20:51:03.780Z,99513.94
2024-01-27T20:53:30.728Z,99503.00
2024-01-27T20:55:57.390Z,99505.69
2024-01-27T20:58:24.050Z,99513.25
2024-01-27T21:00:50.875Z,99515.03
2024-01-27T21:03:17.848Z,99506.19
2024-01-27T21:05:45.651Z,99505.19
2024-01-27T21:08:12.427Z,99508.09
2024-01-27T21:10:38.983Z,99502.50
2024-01-27T21:13:05.583Z,99506.88
2024-01-27T21:15:32.337Z,99513.94
2024-01-27T21:17:59.158Z,99516.63
2024-01-27T21:20:25.871Z,99512.84
2024-01-27T21:22:52.406Z,99513.94
2024-01-27T21:25:18.962Z,99515.31
2024-01-27T21:27:45.718Z,99512.94
2024-01-27T21:30:12.642Z,99502.81
2024-01-27T21:32:39.265Z,99503.97
2024-01-27T21:35:07.087Z,99506.78
2024-01-27T21:37:33.867Z,99505.59
2024-01-27T21:40:01.026Z,99498.34
2024-01-27T21:42:27.770Z,99502.59
2024-01-27T21:44:54.413Z,99509.16
2024-01-27T21:47:22.011Z,99512.25
2024-01-27T21:49:48.657Z,99514.84
2024-01-27T21:52:15.236Z,99509.56
2024-01-27T21:54:41.928Z,99505.16
2024-01-27T21:57:09.223Z,99501.50
2024-01-27T21:59:36.059Z,99496.81
2024-01-27T22:02:02.891Z,99501.19
2024-01-27T22:04:29.614Z,99512.50
2024-01-27T22:06:57.793Z,99505.94
2024-01-27T22:09:24.919Z,99510.09
2024-01-27T22:11:51.516Z,99510.47
2024-01-27T22:14:18.231Z,99491.88
2024-01-27T22:16:44.878Z,99495.41
2024-01-27T22:19:11.657Z,99489.03
2024-01-27T22:21:38.372Z,99475.63
2024-01-27T22:51:03.374Z,99468.31
2024-01-27T22:53:30.076Z,99468.13
2024-01-27T22:55:56.697Z,99473.41
2024-01-27T22:58:23.515Z,99454.41
2024-01-27T23:00:50.314Z,99455.72
2024-01-27T23:03:20.223Z,99455.50
2024-01-27T23:05:47.534Z,99455.78
2024-01-27T23:08:14.384Z,99462.16
2024-01-27T23:10:43.102Z,99463.25
2024-01-27T23:13:09.954Z,99460.38
2024-01-27T23:15:37.163Z,99465.44
2024-01-27T23:18:07.703Z,99457.59
2024-01-27T23:20:35.756Z,99463.53
2024-01-27T23:23:02.572Z,99464.91
2024-01-27T23:25:29.205Z,99459.84
2024-01-27T23:27:56.445Z,99456.59
2024-01-27T23:30:23.200Z,99444.59
2024-01-27T23:32:49.809Z,99449.44
2024-01-27T23:35:16.475Z,99447.25
2024-01-27T23:37:44.480Z,99451.44
2024-01-27T23:40:12.372Z,99440.63
2024-01-27T23:42:42.127Z,99435.56
2024-01-27T23:45:09.744Z,99433.19
2024-01-27T23:47:36.548Z,99435.94
2024-01-27T23:50:04.613Z,99428.97
2024-01-27T23:52:35.974Z,99422.03
2024-01-27T23:55:03.555Z,99422.47
2024-01-27T23:57:30.375Z,99422.94
2024-01-27T23:59:56.985Z,99426.31
